Terminal Aerodrome Forecast
Issued by NWS Memphis, TN

Home | Current Version | Previous Version | Text Only | Print | Product List | Glossary On
Versions: 1 2 3 4 5 6 7 8 9 10 11 12 13 14 15 16 17 18
000
FTUS44 KMEG 270753 AAA
TAFMKL
TAF AMD
KMKL 270753Z 2708/2806 27007KT P6SM BKN006 OVC025
     FM271500 28010KT P6SM BKN015
     FM271800 27010KT P6SM SKC
     FM280000 VRB02KT P6SM SKC=

USA.gov is the U.S. government's official web portal to all federal, state and local government web resources and services.